Time;durP1;ratioP1;P1;durP2;ratioP2;P2;SDS_P1;SDS_P2;PMS_P1;PMS_P2;Temp;Humidity;BMP_temperature;BMP_pressure;BME280_temperature;BME280_humidity;BME280_pressure;Samples;Min_cycle;Max_cycle;Signal;HPM_P1;HPM_P2
2024/01/09 00:00:15;;;;;;;11.98;6.00;;;;;;;;;;5067906;28;20118;-63
2024/01/09 00:02:43;;;;;;;12.90;5.47;;;;;;;;;;5069357;28;20098;-64
2024/01/09 00:05:12;;;;;;;12.82;5.25;;;;;;;;;;5067895;28;20131;-63
2024/01/09 00:07:40;;;;;;;14.73;5.47;;;;;;;;;;5070221;28;20102;-65
2024/01/09 00:10:09;;;;;;;15.30;6.15;;;;;;;;;;5069256;28;20051;-64
2024/01/09 00:12:37;;;;;;;11.68;5.53;;;;;;;;;;5069990;28;20090;-64
2024/01/09 00:15:09;;;;;;;10.48;4.97;;;;;;;;;;5069091;28;20048;-64
2024/01/09 00:17:38;;;;;;;11.02;5.78;;;;;;;;;;5068454;28;20050;-64
2024/01/09 00:20:07;;;;;;;10.73;5.53;;;;;;;;;;5068909;28;20049;-64
2024/01/09 00:22:35;;;;;;;9.35;5.50;;;;;;;;;;5069245;28;20044;-65
2024/01/09 00:25:05;;;;;;;11.55;6.13;;;;;;;;;;5066268;28;20473;-63
2024/01/09 00:27:33;;;;;;;8.88;5.20;;;;;;;;;;5068317;28;20426;-63
2024/01/09 00:30:01;;;;;;;12.15;6.35;;;;;;;;;;5067969;28;20390;-64
2024/01/09 00:32:31;;;;;;;11.52;6.38;;;;;;;;;;5068720;28;20118;-65
2024/01/09 00:35:01;;;;;;;11.02;5.72;;;;;;;;;;5068713;28;20330;-65
2024/01/09 00:37:29;;;;;;;10.25;5.40;;;;;;;;;;5067009;28;20143;-65
2024/01/09 00:39:57;;;;;;;11.68;5.63;;;;;;;;;;5068942;28;20131;-64
2024/01/09 00:42:26;;;;;;;10.90;5.88;;;;;;;;;;5065191;28;20106;-63
2024/01/09 00:44:54;;;;;;;13.13;6.13;;;;;;;;;;5068286;28;20121;-64
2024/01/09 00:47:23;;;;;;;8.27;5.03;;;;;;;;;;5066617;28;20044;-67
2024/01/09 00:49:53;;;;;;;7.93;4.45;;;;;;;;;;5069206;28;20048;-64
2024/01/09 00:52:21;;;;;;;12.23;6.03;;;;;;;;;;5069844;28;20067;-64
2024/01/09 00:54:49;;;;;;;12.63;6.38;;;;;;;;;;5069727;28;20080;-64
2024/01/09 00:57:18;;;;;;;11.82;6.18;;;;;;;;;;5067270;28;20044;-62
2024/01/09 00:59:47;;;;;;;11.85;6.28;;;;;;;;;;5067952;28;20123;-65
2024/01/09 01:02:16;;;;;;;10.23;5.80;;;;;;;;;;5068540;28;20040;-62
2024/01/09 01:04:44;;;;;;;11.98;6.25;;;;;;;;;;5068795;28;20062;-65
2024/01/09 01:07:14;;;;;;;13.15;7.25;;;;;;;;;;5067115;28;20076;-64
2024/01/09 01:09:42;;;;;;;7.72;4.95;;;;;;;;;;5068862;28;20076;-63
2024/01/09 01:12:11;;;;;;;10.65;5.20;;;;;;;;;;5066941;28;20102;-63
2024/01/09 01:14:39;;;;;;;5.32;2.63;;;;;;;;;;5066515;28;20086;-63
2024/01/09 01:17:08;;;;;;;13.45;7.10;;;;;;;;;;5068517;28;20091;-63
2024/01/09 01:19:36;;;;;;;11.00;5.13;;;;;;;;;;5066630;28;20055;-63
2024/01/09 01:22:05;;;;;;;7.63;5.13;;;;;;;;;;5068301;28;20052;-63
2024/01/09 01:24:34;;;;;;;11.80;6.43;;;;;;;;;;5068112;28;20056;-62
2024/01/09 01:27:03;;;;;;;14.48;6.28;;;;;;;;;;5067655;28;20332;-64
2024/01/09 01:29:31;;;;;;;6.60;5.05;;;;;;;;;;5067787;28;20040;-62
2024/01/09 01:31:59;;;;;;;9.00;5.30;;;;;;;;;;5069154;28;20559;-62
2024/01/09 01:34:28;;;;;;;11.75;5.15;;;;;;;;;;5068445;28;20090;-64
2024/01/09 01:36:56;;;;;;;11.20;6.00;;;;;;;;;;5067645;28;20505;-62
2024/01/09 01:39:25;;;;;;;9.95;5.90;;;;;;;;;;5068646;28;20110;-63
2024/01/09 01:41:54;;;;;;;15.10;7.63;;;;;;;;;;5063183;28;20041;-63
2024/01/09 01:44:23;;;;;;;12.07;6.68;;;;;;;;;;5068080;28;20493;-62
2024/01/09 01:46:52;;;;;;;15.07;6.10;;;;;;;;;;5064020;28;20051;-64
2024/01/09 01:49:20;;;;;;;11.02;5.07;;;;;;;;;;5065628;28;20436;-63
2024/01/09 01:51:51;;;;;;;11.77;5.53;;;;;;;;;;5068218;28;20562;-63
2024/01/09 01:54:19;;;;;;;10.27;5.50;;;;;;;;;;5065866;28;20045;-62
2024/01/09 01:56:48;;;;;;;14.15;6.82;;;;;;;;;;5066203;28;20044;-62
2024/01/09 01:59:20;;;;;;;10.27;5.78;;;;;;;;;;5067380;28;20076;-63
2024/01/09 02:01:49;;;;;;;12.90;5.53;;;;;;;;;;5066198;28;20040;-66
2024/01/09 02:04:18;;;;;;;6.18;4.40;;;;;;;;;;5062699;28;20125;-66
2024/01/09 02:06:47;;;;;;;13.80;6.63;;;;;;;;;;5066792;28;20052;-62
2024/01/09 02:09:15;;;;;;;11.00;5.78;;;;;;;;;;5065675;28;20063;-63
2024/01/09 02:11:46;;;;;;;12.40;4.93;;;;;;;;;;5067777;28;20052;-64
2024/01/09 02:14:15;;;;;;;11.23;4.60;;;;;;;;;;5065848;28;20144;-64
2024/01/09 02:16:45;;;;;;;13.13;7.18;;;;;;;;;;5067119;28;21307;-64
2024/01/09 02:19:13;;;;;;;10.27;5.15;;;;;;;;;;5067058;28;20052;-65
2024/01/09 02:21:43;;;;;;;8.55;4.65;;;;;;;;;;5067034;28;20053;-65
2024/01/09 02:24:11;;;;;;;8.50;5.22;;;;;;;;;;5068362;28;20052;-63
2024/01/09 02:26:45;;;;;;;11.98;5.88;;;;;;;;;;5066052;28;20439;-64
2024/01/09 02:29:33;;;;;;;19.38;8.00;;;;;;;;;;5067734;28;20045;-62
2024/01/09 02:32:04;;;;;;;12.10;5.57;;;;;;;;;;5067117;28;20546;-63
2024/01/09 02:34:34;;;;;;;9.98;5.63;;;;;;;;;;5067748;28;20102;-63
2024/01/09 02:37:02;;;;;;;3.42;2.88;;;;;;;;;;5066943;28;20514;-64
2024/01/09 02:39:31;;;;;;;12.75;5.68;;;;;;;;;;5067517;28;20513;-64
2024/01/09 02:41:59;;;;;;;6.45;3.90;;;;;;;;;;5063753;28;20500;-63
2024/01/09 02:44:28;;;;;;;10.38;5.85;;;;;;;;;;5067833;28;20048;-64
2024/01/09 02:46:56;;;;;;;10.82;5.68;;;;;;;;;;5064027;28;20129;-63
2024/01/09 02:49:26;;;;;;;12.75;7.03;;;;;;;;;;5067872;28;20137;-64
2024/01/09 02:51:55;;;;;;;8.15;4.53;;;;;;;;;;5067310;28;20045;-64
2024/01/09 02:54:23;;;;;;;13.65;6.32;;;;;;;;;;5066590;28;20045;-63
2024/01/09 02:56:52;;;;;;;8.23;4.78;;;;;;;;;;5065927;28;20459;-62
2024/01/09 02:59:23;;;;;;;13.43;6.65;;;;;;;;;;5066588;28;20068;-64
2024/01/09 03:01:52;;;;;;;11.27;4.47;;;;;;;;;;5065001;28;20053;-63
2024/01/09 03:04:20;;;;;;;12.70;6.60;;;;;;;;;;5065754;28;20059;-63
2024/01/09 03:06:50;;;;;;;10.27;6.22;;;;;;;;;;5065800;28;20052;-65
2024/01/09 03:09:19;;;;;;;10.07;5.97;;;;;;;;;;5066108;28;20079;-64
2024/01/09 03:11:47;;;;;;;9.68;5.30;;;;;;;;;;5067031;28;20049;-65
2024/01/09 03:14:16;;;;;;;13.77;6.05;;;;;;;;;;5066804;28;20079;-65
2024/01/09 03:16:48;;;;;;;14.80;5.70;;;;;;;;;;5064262;28;20543;-64
2024/01/09 03:19:17;;;;;;;12.05;6.68;;;;;;;;;;5068321;28;20087;-63
2024/01/09 03:21:45;;;;;;;8.57;4.65;;;;;;;;;;5071151;28;20185;-64
2024/01/09 03:24:15;;;;;;;10.88;5.78;;;;;;;;;;5071417;28;20064;-63
2024/01/09 03:26:43;;;;;;;11.20;6.22;;;;;;;;;;5070238;28;20513;-65
2024/01/09 03:29:11;;;;;;;15.70;7.30;;;;;;;;;;5068521;28;20579;-64
2024/01/09 03:31:40;;;;;;;17.70;7.45;;;;;;;;;;5071675;28;20045;-63
2024/01/09 03:34:08;;;;;;;17.35;7.18;;;;;;;;;;5068571;28;20485;-63
2024/01/09 03:36:38;;;;;;;14.82;6.93;;;;;;;;;;5071152;28;20091;-64
2024/01/09 03:39:08;;;;;;;12.23;6.53;;;;;;;;;;5070938;28;20052;-66
2024/01/09 03:41:38;;;;;;;16.90;7.28;;;;;;;;;;5067364;28;20044;-64
2024/01/09 03:44:06;;;;;;;7.82;4.82;;;;;;;;;;5071071;28;20561;-63
2024/01/09 03:46:35;;;;;;;11.90;6.13;;;;;;;;;;5067364;28;20079;-65
2024/01/09 03:49:03;;;;;;;7.88;5.70;;;;;;;;;;5070388;28;20135;-63
2024/01/09 03:51:32;;;;;;;13.85;6.63;;;;;;;;;;5071086;28;20056;-65
2024/01/09 03:54:00;;;;;;;11.43;5.35;;;;;;;;;;5070231;28;20063;-66
2024/01/09 03:56:28;;;;;;;6.55;4.15;;;;;;;;;;5069954;28;20048;-63
2024/01/09 03:58:58;;;;;;;6.05;4.20;;;;;;;;;;5067201;28;20405;-63
2024/01/09 04:01:27;;;;;;;10.85;5.97;;;;;;;;;;5066820;28;20121;-63
2024/01/09 04:03:56;;;;;;;14.32;6.85;;;;;;;;;;5065894;28;20088;-63
2024/01/09 04:06:25;;;;;;;16.42;6.32;;;;;;;;;;5070020;28;20059;-64
2024/01/09 04:08:53;;;;;;;17.08;7.78;;;;;;;;;;5070348;28;20049;-64
2024/01/09 04:11:22;;;;;;;16.08;7.38;;;;;;;;;;5070779;28;20053;-63
2024/01/09 04:13:50;;;;;;;15.15;6.55;;;;;;;;;;5069330;28;20054;-66
2024/01/09 04:16:21;;;;;;;16.75;6.75;;;;;;;;;;5067596;28;20190;-64
2024/01/09 04:18:49;;;;;;;11.02;5.85;;;;;;;;;;5066454;28;20047;-65
2024/01/09 04:21:18;;;;;;;8.63;3.88;;;;;;;;;;5069140;28;20056;-63
2024/01/09 04:23:46;;;;;;;15.20;7.57;;;;;;;;;;5070085;28;20052;-63
2024/01/09 04:26:15;;;;;;;13.50;5.55;;;;;;;;;;5068610;28;20071;-64
2024/01/09 04:28:43;;;;;;;15.77;6.80;;;;;;;;;;5069789;28;20051;-65
2024/01/09 04:31:12;;;;;;;13.50;6.55;;;;;;;;;;5068782;28;20055;-64
2024/01/09 04:33:41;;;;;;;11.05;5.68;;;;;;;;;;5064649;28;20535;-63
2024/01/09 04:36:15;;;;;;;13.18;5.75;;;;;;;;;;5066055;28;20064;-63
2024/01/09 04:38:44;;;;;;;11.95;6.38;;;;;;;;;;5068724;28;20054;-65
2024/01/09 04:41:15;;;;;;;6.57;4.20;;;;;;;;;;5066205;28;20056;-67
2024/01/09 04:43:44;;;;;;;13.85;6.55;;;;;;;;;;5065767;28;20048;-69
2024/01/09 04:46:12;;;;;;;15.18;6.25;;;;;;;;;;5067881;28;20044;-64
2024/01/09 04:48:42;;;;;;;9.70;5.45;;;;;;;;;;5067391;28;20049;-64
2024/01/09 04:51:11;;;;;;;10.68;6.18;;;;;;;;;;5067590;28;20083;-64
2024/01/09 04:53:39;;;;;;;10.88;6.03;;;;;;;;;;5067540;28;20040;-63
2024/01/09 04:56:08;;;;;;;4.15;3.58;;;;;;;;;;5065814;28;20489;-67
2024/01/09 04:58:37;;;;;;;7.10;3.97;;;;;;;;;;5066934;28;20045;-64
2024/01/09 05:01:05;;;;;;;12.63;6.47;;;;;;;;;;5066577;28;20049;-63
2024/01/09 05:03:33;;;;;;;8.85;5.20;;;;;;;;;;5066039;28;20136;-65
2024/01/09 05:06:03;;;;;;;13.30;6.18;;;;;;;;;;5065823;28;20072;-64
2024/01/09 05:08:32;;;;;;;10.23;5.93;;;;;;;;;;5067434;28;20049;-65
2024/01/09 05:11:00;;;;;;;10.52;5.65;;;;;;;;;;5064609;28;20049;-63
2024/01/09 05:13:31;;;;;;;12.50;5.63;;;;;;;;;;5067020;28;20044;-63
2024/01/09 05:15:59;;;;;;;17.85;7.22;;;;;;;;;;5065813;28;20494;-63
2024/01/09 05:18:27;;;;;;;13.48;5.97;;;;;;;;;;5064457;28;20041;-67
2024/01/09 05:20:56;;;;;;;10.45;5.65;;;;;;;;;;5063366;28;20536;-63
2024/01/09 05:23:26;;;;;;;4.13;3.25;;;;;;;;;;5066551;28;20286;-62
2024/01/09 05:25:54;;;;;;;14.10;6.20;;;;;;;;;;5067046;28;20070;-64
2024/01/09 05:28:23;;;;;;;11.75;6.00;;;;;;;;;;5065954;28;20145;-63
2024/01/09 05:30:51;;;;;;;7.78;5.00;;;;;;;;;;5067070;28;20102;-64
2024/01/09 05:33:19;;;;;;;14.27;6.50;;;;;;;;;;5067766;28;20139;-65
2024/01/09 05:35:48;;;;;;;12.43;6.25;;;;;;;;;;5063273;28;20052;-65
2024/01/09 05:38:16;;;;;;;12.77;6.53;;;;;;;;;;5066497;28;20041;-62
2024/01/09 05:40:48;;;;;;;11.98;6.15;;;;;;;;;;5066558;28;20052;-63
2024/01/09 05:43:17;;;;;;;13.55;6.75;;;;;;;;;;5063212;28;20056;-62
2024/01/09 05:45:45;;;;;;;10.73;6.47;;;;;;;;;;5063586;28;20455;-64
2024/01/09 05:48:13;;;;;;;14.75;7.18;;;;;;;;;;5062581;28;20537;-63
2024/01/09 05:50:42;;;;;;;10.02;5.05;;;;;;;;;;5069229;28;20076;-65
2024/01/09 05:53:10;;;;;;;11.68;6.13;;;;;;;;;;5067756;28;20102;-64
2024/01/09 05:55:39;;;;;;;10.75;5.13;;;;;;;;;;5062470;28;20060;-63
2024/01/09 05:58:09;;;;;;;13.10;6.20;;;;;;;;;;5067917;28;20049;-64
2024/01/09 06:00:37;;;;;;;12.57;6.28;;;;;;;;;;5068458;28;20040;-63
2024/01/09 06:03:06;;;;;;;19.50;7.32;;;;;;;;;;5060780;28;20164;-64
2024/01/09 06:05:34;;;;;;;14.68;6.28;;;;;;;;;;5060701;28;20195;-63
2024/01/09 06:08:03;;;;;;;11.98;6.30;;;;;;;;;;5064850;28;20048;-64
2024/01/09 06:10:31;;;;;;;9.88;4.85;;;;;;;;;;5062007;28;20493;-62
2024/01/09 06:12:59;;;;;;;10.18;6.03;;;;;;;;;;5060935;28;20072;-63
2024/01/09 06:15:29;;;;;;;13.07;7.43;;;;;;;;;;5064790;28;20056;-61
2024/01/09 06:17:58;;;;;;;15.45;6.43;;;;;;;;;;5065891;28;20053;-62
2024/01/09 06:20:26;;;;;;;17.23;6.93;;;;;;;;;;5065906;28;20084;-62
2024/01/09 06:22:55;;;;;;;11.20;5.07;;;;;;;;;;5065786;28;20076;-62
2024/01/09 06:25:23;;;;;;;18.27;5.95;;;;;;;;;;5063923;28;20141;-63
2024/01/09 06:27:51;;;;;;;12.60;5.95;;;;;;;;;;5064722;28;20048;-66
2024/01/09 06:30:20;;;;;;;9.35;5.25;;;;;;;;;;5066035;28;20044;-62
2024/01/09 06:32:50;;;;;;;10.98;5.57;;;;;;;;;;5064692;28;20072;-62
2024/01/09 06:35:18;;;;;;;13.15;6.45;;;;;;;;;;5064561;28;20052;-62
2024/01/09 06:37:47;;;;;;;11.80;6.32;;;;;;;;;;5065372;28;20474;-62
2024/01/09 06:40:19;;;;;;;9.55;5.57;;;;;;;;;;5064243;28;20088;-61
2024/01/09 06:42:48;;;;;;;15.05;6.82;;;;;;;;;;5060303;28;20045;-64
2024/01/09 06:45:16;;;;;;;11.40;6.60;;;;;;;;;;5063852;28;20125;-64
2024/01/09 06:47:45;;;;;;;11.13;5.82;;;;;;;;;;5063913;28;20052;-63
2024/01/09 06:50:15;;;;;;;10.27;4.82;;;;;;;;;;5065349;28;20080;-61
2024/01/09 06:53:00;;;;;;;13.02;6.75;;;;;;;;;;5066120;28;20154;-60
2024/01/09 06:55:29;;;;;;;15.13;6.45;;;;;;;;;;5069695;28;20052;-61
2024/01/09 06:57:57;;;;;;;13.50;6.50;;;;;;;;;;5070772;28;20075;-62
2024/01/09 07:00:26;;;;;;;13.18;6.10;;;;;;;;;;5070896;28;20478;-61
2024/01/09 07:02:54;;;;;;;10.27;5.38;;;;;;;;;;5069303;28;20076;-62
2024/01/09 07:05:24;;;;;;;14.48;6.75;;;;;;;;;;5070719;28;20052;-61
2024/01/09 07:07:52;;;;;;;13.98;6.78;;;;;;;;;;5072190;28;20057;-63
2024/01/09 07:10:21;;;;;;;12.48;5.95;;;;;;;;;;5070520;28;20111;-62
2024/01/09 07:12:49;;;;;;;12.18;6.80;;;;;;;;;;5065717;28;20044;-62
2024/01/09 07:15:18;;;;;;;14.18;6.85;;;;;;;;;;5069878;28;20409;-61
2024/01/09 07:17:47;;;;;;;9.32;5.50;;;;;;;;;;5069280;28;20048;-61
2024/01/09 07:20:16;;;;;;;9.02;4.15;;;;;;;;;;5070181;28;20041;-61
2024/01/09 07:22:46;;;;;;;11.63;6.65;;;;;;;;;;5070301;28;20051;-62
2024/01/09 07:25:17;;;;;;;12.80;6.07;;;;;;;;;;5070163;28;20481;-62
2024/01/09 07:27:46;;;;;;;8.20;4.70;;;;;;;;;;5070406;28;20064;-61
2024/01/09 07:30:15;;;;;;;15.23;6.03;;;;;;;;;;5070851;28;20157;-62
2024/01/09 07:32:43;;;;;;;12.68;6.28;;;;;;;;;;5063146;28;20045;-61
2024/01/09 07:35:12;;;;;;;7.72;3.47;;;;;;;;;;5068760;28;20503;-62
2024/01/09 07:37:40;;;;;;;15.15;6.00;;;;;;;;;;5067626;28;20051;-63
2024/01/09 07:40:11;;;;;;;6.80;4.78;;;;;;;;;;5070499;28;20121;-61
2024/01/09 07:42:40;;;;;;;9.32;5.38;;;;;;;;;;5071613;28;20041;-61
2024/01/09 07:45:28;;;;;;;14.48;6.72;;;;;;;;;;5069162;28;20140;-61
2024/01/09 07:47:56;;;;;;;11.52;6.55;;;;;;;;;;5069613;28;20048;-62
2024/01/09 07:50:25;;;;;;;6.07;3.95;;;;;;;;;;5068463;28;20079;-60
2024/01/09 07:52:53;;;;;;;16.70;6.93;;;;;;;;;;5069692;28;20045;-61
2024/01/09 07:55:23;;;;;;;14.98;6.57;;;;;;;;;;5067016;28;20455;-62
2024/01/09 07:57:52;;;;;;;12.60;6.45;;;;;;;;;;5066331;28;20047;-63
2024/01/09 08:00:20;;;;;;;10.48;5.47;;;;;;;;;;5069610;28;20417;-62
2024/01/09 08:02:49;;;;;;;13.65;7.53;;;;;;;;;;5069494;28;20093;-62
2024/01/09 08:05:17;;;;;;;22.10;7.40;;;;;;;;;;5067445;28;20051;-61
2024/01/09 08:07:46;;;;;;;17.50;7.25;;;;;;;;;;5069381;28;20052;-63
2024/01/09 08:10:16;;;;;;;9.75;5.63;;;;;;;;;;5067271;28;20048;-62
2024/01/09 08:12:45;;;;;;;14.95;6.72;;;;;;;;;;5069388;28;20143;-62
2024/01/09 08:15:14;;;;;;;12.65;6.80;;;;;;;;;;5067260;28;20502;-62
2024/01/09 08:17:42;;;;;;;11.00;5.72;;;;;;;;;;5067113;28;20105;-61
2024/01/09 08:20:11;;;;;;;11.73;5.78;;;;;;;;;;5067217;28;20489;-61
2024/01/09 08:22:40;;;;;;;12.02;6.05;;;;;;;;;;5069868;28;20083;-62
2024/01/09 08:25:11;;;;;;;11.05;6.20;;;;;;;;;;5066789;28;20129;-62
2024/01/09 08:27:39;;;;;;;14.68;6.68;;;;;;;;;;5069105;28;20079;-61
2024/01/09 08:30:10;;;;;;;14.27;6.70;;;;;;;;;;5069597;28;20089;-61
2024/01/09 08:32:39;;;;;;;16.35;6.25;;;;;;;;;;5069800;28;20175;-62
2024/01/09 08:35:08;;;;;;;6.50;4.53;;;;;;;;;;5068097;28;20056;-61
2024/01/09 08:37:36;;;;;;;10.75;5.68;;;;;;;;;;5069621;28;20521;-62
2024/01/09 08:40:05;;;;;;;11.07;5.72;;;;;;;;;;5069120;28;20048;-61
2024/01/09 08:42:33;;;;;;;12.63;6.32;;;;;;;;;;5069535;28;20473;-61
2024/01/09 08:45:02;;;;;;;6.95;4.13;;;;;;;;;;5068713;28;20546;-61
2024/01/09 08:47:32;;;;;;;9.65;5.22;;;;;;;;;;5067437;28;20059;-62
2024/01/09 08:50:00;;;;;;;11.18;6.53;;;;;;;;;;5068406;28;20040;-62
2024/01/09 08:52:29;;;;;;;17.20;7.07;;;;;;;;;;5066979;28;20044;-61
2024/01/09 08:54:57;;;;;;;9.50;5.47;;;;;;;;;;5065225;28;20056;-61
2024/01/09 08:57:26;;;;;;;12.52;5.70;;;;;;;;;;5066845;28;20052;-62
2024/01/09 08:59:56;;;;;;;10.70;5.97;;;;;;;;;;5067845;28;20417;-62
2024/01/09 09:02:27;;;;;;;14.68;6.75;;;;;;;;;;5067900;28;20053;-61
2024/01/09 09:04:57;;;;;;;11.15;6.00;;;;;;;;;;5068736;28;20048;-62
2024/01/09 09:07:25;;;;;;;8.38;4.40;;;;;;;;;;5066116;28;20469;-62
2024/01/09 09:09:54;;;;;;;11.30;6.55;;;;;;;;;;5068703;28;20036;-61
2024/01/09 09:12:23;;;;;;;11.82;6.20;;;;;;;;;;5067913;28;20493;-63
2024/01/09 09:14:51;;;;;;;8.07;4.50;;;;;;;;;;5068398;28;20137;-61
2024/01/09 09:17:20;;;;;;;14.45;6.20;;;;;;;;;;5067534;28;20503;-60
2024/01/09 09:19:48;;;;;;;12.23;6.90;;;;;;;;;;5067433;28;20050;-61
2024/01/09 09:22:18;;;;;;;13.90;5.88;;;;;;;;;;5068753;28;20139;-62
2024/01/09 09:24:47;;;;;;;5.20;3.88;;;;;;;;;;5068356;28;20044;-61
2024/01/09 09:27:15;;;;;;;5.25;3.90;;;;;;;;;;5067110;28;20283;-63
2024/01/09 09:29:43;;;;;;;7.95;5.07;;;;;;;;;;5067952;28;20053;-62
2024/01/09 09:32:12;;;;;;;17.05;6.88;;;;;;;;;;5067088;28;20056;-61
2024/01/09 09:34:41;;;;;;;17.83;6.07;;;;;;;;;;5067814;28;20043;-61
2024/01/09 09:37:13;;;;;;;13.55;6.60;;;;;;;;;;5066936;28;20048;-62
2024/01/09 09:39:43;;;;;;;12.80;5.47;;;;;;;;;;5067901;28;20118;-62
2024/01/09 09:42:12;;;;;;;12.68;6.25;;;;;;;;;;5067409;28;20459;-61
2024/01/09 09:44:42;;;;;;;9.38;5.60;;;;;;;;;;5067466;28;20090;-61
2024/01/09 09:47:11;;;;;;;6.25;3.67;;;;;;;;;;5066327;28;20083;-61
2024/01/09 09:49:40;;;;;;;12.07;5.63;;;;;;;;;;5066420;28;20048;-61
2024/01/09 09:52:10;;;;;;;14.15;6.93;;;;;;;;;;5067347;28;20040;-62
2024/01/09 09:54:39;;;;;;;12.18;6.03;;;;;;;;;;5066127;28;20044;-62
2024/01/09 09:57:10;;;;;;;12.23;6.13;;;;;;;;;;5060391;28;20048;-61
2024/01/09 09:59:38;;;;;;;7.40;4.35;;;;;;;;;;5064733;28;20477;-61
2024/01/09 10:02:12;;;;;;;15.23;7.05;;;;;;;;;;5064853;28;20045;-61
2024/01/09 10:04:47;;;;;;;15.38;6.78;;;;;;;;;;5063133;28;20059;-63
2024/01/09 10:07:17;;;;;;;8.20;4.40;;;;;;;;;;5063716;28;20044;-61
2024/01/09 10:09:49;;;;;;;12.75;6.00;;;;;;;;;;5067017;28;20052;-61
2024/01/09 10:12:22;;;;;;;13.30;6.45;;;;;;;;;;5066769;28;20049;-62
2024/01/09 10:15:04;;;;;;;7.80;4.55;;;;;;;;;;5067471;28;20053;-60
2024/01/09 10:17:33;;;;;;;7.57;3.63;;;;;;;;;;5013831;28;20492;-63
2024/01/09 10:20:02;;;;;;;16.38;7.20;;;;;;;;;;5024172;28;20077;-62
2024/01/09 10:22:31;;;;;;;10.15;5.55;;;;;;;;;;5023501;28;20140;-61
2024/01/09 10:24:59;;;;;;;7.03;4.68;;;;;;;;;;5023518;28;20049;-63
2024/01/09 10:27:29;;;;;;;10.80;5.00;;;;;;;;;;5024218;28;20049;-61
2024/01/09 10:29:59;;;;;;;14.23;6.95;;;;;;;;;;5024017;28;20050;-61
2024/01/09 10:32:28;;;;;;;18.25;6.90;;;;;;;;;;5024747;28;20037;-61
2024/01/09 10:34:56;;;;;;;11.35;6.55;;;;;;;;;;5024124;28;20069;-61
2024/01/09 10:37:25;;;;;;;11.27;6.57;;;;;;;;;;5023498;28;20068;-61
2024/01/09 10:39:54;;;;;;;7.63;4.32;;;;;;;;;;5024112;28;20049;-62
2024/01/09 10:42:22;;;;;;;10.32;6.07;;;;;;;;;;5024948;28;20096;-61
2024/01/09 10:44:52;;;;;;;13.60;6.35;;;;;;;;;;5025038;28;20116;-61
2024/01/09 10:47:21;;;;;;;8.82;5.15;;;;;;;;;;5023671;28;20141;-64
2024/01/09 10:49:51;;;;;;;10.13;6.00;;;;;;;;;;5061750;28;20124;-61
2024/01/09 10:52:19;;;;;;;14.98;6.75;;;;;;;;;;5065026;28;20044;-62
2024/01/09 10:54:48;;;;;;;15.65;7.18;;;;;;;;;;5067184;28;20063;-61
2024/01/09 10:57:17;;;;;;;12.40;6.20;;;;;;;;;;5066925;28;20098;-62
2024/01/09 10:59:46;;;;;;;12.35;6.35;;;;;;;;;;5066588;28;20052;-61
2024/01/09 11:02:17;;;;;;;11.35;4.82;;;;;;;;;;5064963;28;20055;-61
2024/01/09 11:04:46;;;;;;;13.40;6.03;;;;;;;;;;5062268;28;20104;-62
2024/01/09 11:07:15;;;;;;;15.10;6.53;;;;;;;;;;5065861;28;20076;-61
2024/01/09 11:09:47;;;;;;;11.55;6.18;;;;;;;;;;5065779;28;20543;-60
2024/01/09 11:12:32;;;;;;;17.70;6.90;;;;;;;;;;5065510;28;20048;-62
2024/01/09 11:15:03;;;;;;;13.65;7.03;;;;;;;;;;5066563;28;20067;-62
2024/01/09 11:17:35;;;;;;;10.93;6.40;;;;;;;;;;5061639;28;20501;-61
2024/01/09 11:20:05;;;;;;;14.20;6.63;;;;;;;;;;5065614;28;20041;-61
2024/01/09 11:22:35;;;;;;;12.35;6.43;;;;;;;;;;5067009;28;20051;-61
2024/01/09 11:25:05;;;;;;;10.30;5.47;;;;;;;;;;5064887;28;20094;-61
2024/01/09 11:27:41;;;;;;;10.13;5.63;;;;;;;;;;5066625;28;20106;-62
2024/01/09 11:30:13;;;;;;;15.88;7.50;;;;;;;;;;5065581;28;20131;-63
2024/01/09 11:32:44;;;;;;;13.27;6.70;;;;;;;;;;5065861;28;20110;-61
2024/01/09 11:35:14;;;;;;;16.30;6.68;;;;;;;;;;5063242;28;20049;-62
2024/01/09 11:37:43;;;;;;;13.50;5.68;;;;;;;;;;5066813;28;20040;-62
2024/01/09 11:40:12;;;;;;;10.80;4.93;;;;;;;;;;5066368;28;20579;-61
2024/01/09 11:42:44;;;;;;;13.00;7.03;;;;;;;;;;5067919;28;20052;-61
2024/01/09 11:45:13;;;;;;;11.20;5.45;;;;;;;;;;5068669;28;20079;-60
2024/01/09 11:47:41;;;;;;;16.02;7.20;;;;;;;;;;5070301;28;20053;-62
2024/01/09 11:50:12;;;;;;;12.43;6.35;;;;;;;;;;5068458;28;20044;-62
2024/01/09 11:52:42;;;;;;;15.13;6.82;;;;;;;;;;5068670;28;20063;-61
2024/01/09 11:55:11;;;;;;;23.30;7.82;;;;;;;;;;5068617;28;20127;-61
2024/01/09 11:57:42;;;;;;;10.43;6.38;;;;;;;;;;5069947;28;20067;-64
2024/01/09 12:00:11;;;;;;;11.32;6.57;;;;;;;;;;5068060;28;20064;-61
2024/01/09 12:02:39;;;;;;;12.90;6.45;;;;;;;;;;5068875;28;20040;-62
2024/01/09 12:05:08;;;;;;;15.43;6.95;;;;;;;;;;5069474;28;20056;-60
2024/01/09 12:07:39;;;;;;;7.10;5.15;;;;;;;;;;5068350;28;20040;-61
2024/01/09 12:10:08;;;;;;;9.27;5.68;;;;;;;;;;5069510;28;20048;-61
2024/01/09 12:12:53;;;;;;;14.30;7.63;;;;;;;;;;5069417;28;20094;-61
2024/01/09 12:15:22;;;;;;;13.75;6.07;;;;;;;;;;5067991;28;20493;-62
2024/01/09 12:17:57;;;;;;;13.77;6.72;;;;;;;;;;5068013;28;20222;-61
2024/01/09 12:20:27;;;;;;;17.63;7.43;;;;;;;;;;5070014;28;20045;-61
2024/01/09 12:22:57;;;;;;;12.70;6.63;;;;;;;;;;5064936;28;20052;-62
2024/01/09 12:25:26;;;;;;;12.82;6.57;;;;;;;;;;5068999;28;20045;-63
2024/01/09 12:27:54;;;;;;;14.95;7.60;;;;;;;;;;5070297;28;20097;-61
2024/01/09 12:30:24;;;;;;;16.00;6.88;;;;;;;;;;5069421;28;20550;-60
2024/01/09 12:32:53;;;;;;;12.48;6.43;;;;;;;;;;5069000;28;20504;-62
2024/01/09 12:35:22;;;;;;;14.82;6.82;;;;;;;;;;5068976;28;20048;-62
2024/01/09 12:37:51;;;;;;;13.23;5.82;;;;;;;;;;5068599;28;20384;-62
2024/01/09 12:40:21;;;;;;;10.50;5.55;;;;;;;;;;5069467;28;20493;-61
2024/01/09 12:43:05;;;;;;;16.38;6.20;;;;;;;;;;5068020;28;20634;-62
2024/01/09 12:45:34;;;;;;;9.77;6.05;;;;;;;;;;5067979;28;20129;-63
2024/01/09 12:48:05;;;;;;;11.60;6.70;;;;;;;;;;5066261;28;20367;-61
2024/01/09 12:50:33;;;;;;;15.07;5.40;;;;;;;;;;5067395;28;20048;-62
2024/01/09 12:53:03;;;;;;;14.43;6.60;;;;;;;;;;5068844;28;20128;-61
2024/01/09 12:55:33;;;;;;;10.02;5.35;;;;;;;;;;5069155;28;20064;-62
2024/01/09 12:58:01;;;;;;;11.80;6.63;;;;;;;;;;5068744;28;20390;-61
2024/01/09 13:00:30;;;;;;;8.40;5.10;;;;;;;;;;5068764;28;20388;-64
2024/01/09 13:02:58;;;;;;;10.15;6.00;;;;;;;;;;5068732;28;20052;-63
2024/01/09 13:05:27;;;;;;;15.23;6.97;;;;;;;;;;5067419;28;20055;-61
2024/01/09 13:07:56;;;;;;;13.20;6.07;;;;;;;;;;5066668;28;20053;-63
2024/01/09 13:10:24;;;;;;;11.32;5.57;;;;;;;;;;5058011;28;20074;-62
2024/01/09 13:12:54;;;;;;;13.68;5.85;;;;;;;;;;5069210;28;20045;-62
2024/01/09 13:15:23;;;;;;;15.23;5.05;;;;;;;;;;5068097;28;20060;-63
2024/01/09 13:17:51;;;;;;;14.05;6.88;;;;;;;;;;5069048;28;20091;-61
2024/01/09 13:20:21;;;;;;;13.80;6.50;;;;;;;;;;5068291;28;20094;-64
2024/01/09 13:22:50;;;;;;;11.80;6.63;;;;;;;;;;5066905;28;20130;-62
2024/01/09 13:25:21;;;;;;;14.13;6.38;;;;;;;;;;5066751;28;20053;-61
2024/01/09 13:27:50;;;;;;;11.75;6.03;;;;;;;;;;5067926;28;20041;-63
2024/01/09 13:30:20;;;;;;;12.10;6.00;;;;;;;;;;5069226;28;20056;-62
2024/01/09 13:33:09;;;;;;;13.52;5.90;;;;;;;;;;5066923;28;20070;-64
2024/01/09 13:35:38;;;;;;;11.55;6.72;;;;;;;;;;5068080;28;20048;-63
2024/01/09 13:38:07;;;;;;;10.50;5.63;;;;;;;;;;5065924;28;20072;-62
2024/01/09 13:40:36;;;;;;;12.10;5.30;;;;;;;;;;5064489;28;20099;-62
2024/01/09 13:43:04;;;;;;;9.55;5.80;;;;;;;;;;5069190;28;20102;-63
2024/01/09 13:45:35;;;;;;;10.50;6.60;;;;;;;;;;5066571;28;20059;-62
2024/01/09 13:48:03;;;;;;;7.80;4.68;;;;;;;;;;5068119;28;20109;-61
2024/01/09 13:50:32;;;;;;;12.40;6.43;;;;;;;;;;5065759;28;20555;-61
2024/01/09 13:53:20;;;;;;;14.38;6.18;;;;;;;;;;5068156;28;20052;-60
2024/01/09 13:55:52;;;;;;;10.43;5.85;;;;;;;;;;5067558;28;20447;-61
2024/01/09 13:58:21;;;;;;;12.98;5.85;;;;;;;;;;5068075;28;20056;-63
2024/01/09 14:00:50;;;;;;;15.57;5.90;;;;;;;;;;5067921;28;20106;-63
2024/01/09 14:03:21;;;;;;;11.07;5.53;;;;;;;;;;5063490;28;20095;-62
2024/01/09 14:05:50;;;;;;;16.88;6.50;;;;;;;;;;5066972;28;20098;-62
2024/01/09 14:08:19;;;;;;;11.50;5.80;;;;;;;;;;5067324;28;20056;-62
2024/01/09 14:10:47;;;;;;;17.63;6.85;;;;;;;;;;5067554;28;20045;-63
2024/01/09 14:13:18;;;;;;;9.65;5.72;;;;;;;;;;5067918;28;20098;-63
2024/01/09 14:15:48;;;;;;;17.80;5.78;;;;;;;;;;5066599;28;20052;-63
2024/01/09 14:18:18;;;;;;;8.60;4.63;;;;;;;;;;5066141;28;21159;-62
2024/01/09 14:20:47;;;;;;;11.38;5.60;;;;;;;;;;5067866;28;20106;-62
2024/01/09 14:23:15;;;;;;;9.23;4.70;;;;;;;;;;5065942;28;20382;-63
2024/01/09 14:25:44;;;;;;;11.75;5.70;;;;;;;;;;5067197;28;20503;-62
2024/01/09 14:28:12;;;;;;;10.52;6.25;;;;;;;;;;5068558;28;20044;-61
2024/01/09 14:30:40;;;;;;;11.77;6.78;;;;;;;;;;5068241;28;20572;-64
2024/01/09 14:33:09;;;;;;;11.38;5.82;;;;;;;;;;5067174;28;20067;-63
2024/01/09 14:35:39;;;;;;;10.77;5.72;;;;;;;;;;5067112;28;20041;-63
2024/01/09 14:38:07;;;;;;;18.88;7.00;;;;;;;;;;5065067;28;20052;-63
2024/01/09 14:40:36;;;;;;;14.23;5.18;;;;;;;;;;5066763;28;20568;-62
2024/01/09 14:43:04;;;;;;;10.55;5.70;;;;;;;;;;5067902;28;20132;-62
2024/01/09 14:45:34;;;;;;;11.52;5.45;;;;;;;;;;5065334;28;20504;-64